createdAt,value
2016-11-29T00:00:04.622Z,1030.43
2016-11-29T00:00:14.280Z,1030.41
2016-11-29T00:00:24.273Z,1030.37
2016-11-29T00:00:34.266Z,1030.38
2016-11-29T00:00:44.258Z,1030.4
2016-11-29T00:00:54.252Z,1030.39
2016-11-29T00:01:04.243Z,1030.4
2016-11-29T00:01:14.238Z,1030.37
2016-11-29T00:01:24.232Z,1030.36
2016-11-29T00:01:34.224Z,1030.44
2016-11-29T00:01:44.217Z,1030.38
2016-11-29T00:01:54.209Z,1030.43
2016-11-29T00:02:04.203Z,1030.42
2016-11-29T00:02:14.196Z,1030.38
2016-11-29T00:02:24.190Z,1030.38
2016-11-29T00:02:34.182Z,1030.34
2016-11-29T00:02:44.176Z,1030.36
2016-11-29T00:02:54.167Z,1030.39
2016-11-29T00:03:04.162Z,1030.4
2016-11-29T00:03:14.154Z,1030.41
2016-11-29T00:03:24.148Z,1030.38
2016-11-29T00:03:34.140Z,1030.37
2016-11-29T00:03:44.132Z,1030.34
2016-11-29T00:03:54.128Z,1030.37
2016-11-29T00:04:04.122Z,1030.35
2016-11-29T00:04:14.116Z,1030.36
2016-11-29T00:04:24.109Z,1030.36
2016-11-29T00:04:34.102Z,1030.36
2016-11-29T00:04:44.095Z,1030.36
2016-11-29T00:04:54.086Z,1030.3
2016-11-29T00:05:04.078Z,1030.31
2016-11-29T00:05:14.074Z,1030.37
2016-11-29T00:05:24.066Z,1030.33
2016-11-29T00:05:34.059Z,1030.34
2016-11-29T00:05:44.053Z,1030.36
2016-11-29T00:05:54.045Z,1030.34
2016-11-29T00:06:04.040Z,1030.32
2016-11-29T00:06:14.031Z,1030.34
2016-11-29T00:06:24.024Z,1030.34
2016-11-29T00:06:34.019Z,1030.29
2016-11-29T00:06:44.010Z,1030.34
2016-11-29T00:06:54.003Z,1030.28
2016-11-29T00:07:03.997Z,1030.28
2016-11-29T00:07:13.989Z,1030.29
2016-11-29T00:07:23.983Z,1030.3
2016-11-29T00:07:33.976Z,1030.3
2016-11-29T00:07:43.968Z,1030.35
2016-11-29T00:07:53.962Z,1030.29
2016-11-29T00:08:03.956Z,1030.3
2016-11-29T00:08:13.948Z,1030.32
2016-11-29T00:08:23.941Z,1030.31
2016-11-29T00:08:33.935Z,1030.33
2016-11-29T00:08:43.927Z,1030.34
2016-11-29T00:08:53.920Z,1030.3
2016-11-29T00:09:03.912Z,1030.34
2016-11-29T00:09:13.906Z,1030.32
2016-11-29T00:09:23.897Z,1030.35
2016-11-29T00:09:33.892Z,1030.32
2016-11-29T00:09:43.884Z,1030.28
2016-11-29T00:09:53.877Z,1030.3
2016-11-29T00:10:03.872Z,1030.36
2016-11-29T00:10:13.969Z,1030.3
2016-11-29T00:10:23.857Z,1030.28
2016-11-29T00:10:33.850Z,1030.31
2016-11-29T00:10:43.843Z,1030.31
2016-11-29T00:10:53.838Z,1030.33
2016-11-29T00:11:03.830Z,1030.29
2016-11-29T00:11:13.823Z,1030.31
2016-11-29T00:11:23.815Z,1030.34
2016-11-29T00:11:33.808Z,1030.34
2016-11-29T00:11:43.802Z,1030.33
2016-11-29T00:11:53.794Z,1030.28
2016-11-29T00:12:03.786Z,1030.31
2016-11-29T00:12:13.780Z,1030.34
2016-11-29T00:12:23.772Z,1030.38
2016-11-29T00:12:33.766Z,1030.33
2016-11-29T00:12:43.762Z,1030.32
2016-11-29T00:12:53.751Z,1030.3
2016-11-29T00:13:03.745Z,1030.3
2016-11-29T00:13:13.739Z,1030.3
2016-11-29T00:13:23.731Z,1030.35
2016-11-29T00:13:33.725Z,1030.3
2016-11-29T00:13:43.718Z,1030.28
2016-11-29T00:13:53.710Z,1030.31
2016-11-29T00:14:03.704Z,1030.31
2016-11-29T00:14:13.697Z,1030.32
2016-11-29T00:14:23.689Z,1030.27
2016-11-29T00:14:33.684Z,1030.29
2016-11-29T00:14:43.675Z,1030.3
2016-11-29T00:14:53.670Z,1030.29
2016-11-29T00:15:03.662Z,1030.27
2016-11-29T00:15:13.654Z,1030.28
2016-11-29T00:15:23.646Z,1030.23
2016-11-29T00:15:33.640Z,1030.36
2016-11-29T00:15:43.635Z,1030.28
2016-11-29T00:15:53.627Z,1030.29
2016-11-29T00:16:03.618Z,1030.22
2016-11-29T00:16:13.612Z,1030.28
2016-11-29T00:16:23.607Z,1030.28
2016-11-29T00:16:33.597Z,1030.27
2016-11-29T00:16:43.591Z,1030.29
2016-11-29T00:16:53.584Z,1030.27
2016-11-29T00:17:03.577Z,1030.27
2016-11-29T00:17:13.572Z,1030.32
2016-11-29T00:17:23.564Z,1030.28
2016-11-29T00:17:33.574Z,1030.29
2016-11-29T00:17:43.551Z,1030.23
2016-11-29T00:17:53.542Z,1030.26
2016-11-29T00:18:03.533Z,1030.29
2016-11-29T00:18:13.529Z,1030.3
2016-11-29T00:18:23.521Z,1030.29
2016-11-29T00:18:33.515Z,1030.32
2016-11-29T00:18:43.509Z,1030.36
2016-11-29T00:18:53.500Z,1030.26
2016-11-29T00:19:03.494Z,1030.29
2016-11-29T00:19:13.486Z,1030.31
2016-11-29T00:19:23.480Z,1030.32
2016-11-29T00:19:33.474Z,1030.27
2016-11-29T00:19:43.465Z,1030.29
2016-11-29T00:19:53.459Z,1030.32
2016-11-29T00:20:03.452Z,1030.3
2016-11-29T00:20:13.445Z,1030.27
2016-11-29T00:20:23.438Z,1030.25
2016-11-29T00:20:33.431Z,1030.31
2016-11-29T00:20:43.426Z,1030.27
2016-11-29T00:20:53.416Z,1030.38
2016-11-29T00:21:03.407Z,1030.32
2016-11-29T00:21:13.403Z,1030.29
2016-11-29T00:21:23.395Z,1030.34
2016-11-29T00:21:33.724Z,1030.3
2016-11-29T00:21:43.382Z,1030.31
2016-11-29T00:21:53.375Z,1030.31
2016-11-29T00:22:03.369Z,1030.32
2016-11-29T00:22:13.360Z,1030.3
2016-11-29T00:22:23.355Z,1030.39
2016-11-29T00:22:33.453Z,1030.32
2016-11-29T00:22:43.339Z,1030.33
2016-11-29T00:22:53.333Z,1030.32
2016-11-29T00:23:03.326Z,1030.32
2016-11-29T00:23:13.318Z,1030.32
2016-11-29T00:23:23.312Z,1030.27
2016-11-29T00:23:33.303Z,1030.27
2016-11-29T00:23:43.297Z,1030.3
2016-11-29T00:23:53.292Z,1030.3
2016-11-29T00:24:03.282Z,1030.29
2016-11-29T00:24:13.278Z,1030.34
2016-11-29T00:24:23.272Z,1030.38
2016-11-29T00:24:33.261Z,1030.31
2016-11-29T00:24:43.257Z,1030.27
2016-11-29T00:24:53.249Z,1030.31
2016-11-29T00:25:03.241Z,1030.32
2016-11-29T00:25:13.235Z,1030.29
2016-11-29T00:25:23.226Z,1030.27
2016-11-29T00:25:33.221Z,1030.28
2016-11-29T00:25:43.214Z,1030.3
2016-11-29T00:25:53.206Z,1030.28
2016-11-29T00:26:03.199Z,1030.27
2016-11-29T00:26:13.196Z,1030.29
2016-11-29T00:26:23.185Z,1030.31
2016-11-29T00:26:33.181Z,1030.28
2016-11-29T00:26:43.171Z,1030.27
2016-11-29T00:26:53.165Z,1030.3
2016-11-29T00:27:03.158Z,1030.31
2016-11-29T00:27:13.151Z,1030.27
2016-11-29T00:27:23.144Z,1030.33
2016-11-29T00:27:33.135Z,1030.3
2016-11-29T00:27:43.129Z,1030.27
2016-11-29T00:27:53.123Z,1030.33
2016-11-29T00:28:03.115Z,1030.32
2016-11-29T00:28:13.108Z,1030.32
2016-11-29T00:28:23.102Z,1030.33
2016-11-29T00:28:33.095Z,1030.31
2016-11-29T00:28:43.088Z,1030.31
2016-11-29T00:28:53.085Z,1030.31
2016-11-29T00:29:03.075Z,1030.33
2016-11-29T00:29:13.067Z,1030.32
2016-11-29T00:29:23.059Z,1030.32
2016-11-29T00:29:33.053Z,1030.35
2016-11-29T00:29:43.044Z,1030.33
2016-11-29T00:29:53.055Z,1030.29
2016-11-29T00:30:03.033Z,1030.37
2016-11-29T00:30:13.025Z,1030.39
2016-11-29T00:30:23.017Z,1030.4
2016-11-29T00:30:33.012Z,1030.31
2016-11-29T00:30:43.004Z,1030.32
2016-11-29T00:30:52.999Z,1030.35
2016-11-29T00:31:02.989Z,1030.31
2016-11-29T00:31:12.983Z,1030.36
2016-11-29T00:31:22.976Z,1030.37
2016-11-29T00:31:32.969Z,1030.34
2016-11-29T00:31:42.964Z,1030.38
2016-11-29T00:31:52.957Z,1030.36
2016-11-29T00:32:02.946Z,1030.36
2016-11-29T00:32:12.941Z,1030.36
2016-11-29T00:32:22.935Z,1030.39
2016-11-29T00:32:32.927Z,1030.38
2016-11-29T00:32:42.920Z,1030.36
2016-11-29T00:32:52.910Z,1030.37
2016-11-29T00:33:02.904Z,1030.37
2016-11-29T00:33:13.232Z,1030.32
2016-11-29T00:33:22.890Z,1030.36
2016-11-29T00:33:32.885Z,1030.33
2016-11-29T00:33:42.878Z,1030.33
2016-11-29T00:33:52.872Z,1030.34
2016-11-29T00:34:02.891Z,1030.39
2016-11-29T00:34:12.859Z,1030.34
2016-11-29T00:34:22.850Z,1030.36
2016-11-29T00:34:32.844Z,1030.35
2016-11-29T00:34:42.838Z,1030.37
2016-11-29T00:34:52.829Z,1030.34
2016-11-29T00:35:02.822Z,1030.4
2016-11-29T00:35:12.814Z,1030.35
2016-11-29T00:35:22.809Z,1030.38
2016-11-29T00:35:32.800Z,1030.4
2016-11-29T00:35:42.793Z,1030.4
2016-11-29T00:35:52.788Z,1030.42
2016-11-29T00:36:02.787Z,1030.39
2016-11-29T00:36:12.772Z,1030.37
2016-11-29T00:36:22.766Z,1030.38
2016-11-29T00:36:32.759Z,1030.39
2016-11-29T00:36:42.752Z,1030.38
2016-11-29T00:36:52.745Z,1030.4
2016-11-29T00:37:02.738Z,1030.36
2016-11-29T00:37:12.731Z,1030.39
2016-11-29T00:37:22.725Z,1030.42
2016-11-29T00:37:32.716Z,1030.42
2016-11-29T00:37:42.710Z,1030.41
2016-11-29T00:37:52.702Z,1030.39
2016-11-29T00:38:02.697Z,1030.39
2016-11-29T00:38:12.710Z,1030.41
2016-11-29T00:38:22.684Z,1030.42
2016-11-29T00:38:32.678Z,1030.42
2016-11-29T00:38:42.667Z,1030.49
2016-11-29T00:38:52.660Z,1030.4
2016-11-29T00:39:02.654Z,1030.42
2016-11-29T00:39:12.647Z,1030.36
2016-11-29T00:39:22.641Z,1030.41
2016-11-29T00:39:32.637Z,1030.45
2016-11-29T00:39:42.626Z,1030.41
2016-11-29T00:39:52.617Z,1030.43
2016-11-29T00:40:02.610Z,1030.48
2016-11-29T00:40:12.605Z,1030.49
2016-11-29T00:40:22.598Z,1030.44
2016-11-29T00:40:32.589Z,1030.47
2016-11-29T00:40:42.584Z,1030.49
2016-11-29T00:40:52.577Z,1030.45
2016-11-29T00:41:02.571Z,1030.46
2016-11-29T00:41:12.563Z,1030.5
2016-11-29T00:41:22.556Z,1030.48
2016-11-29T00:41:32.551Z,1030.48
2016-11-29T00:41:42.542Z,1030.54
2016-11-29T00:41:52.534Z,1030.45
2016-11-29T00:42:02.527Z,1030.51
2016-11-29T00:42:12.519Z,1030.54
2016-11-29T00:42:22.517Z,1030.47
2016-11-29T00:42:32.507Z,1030.49
2016-11-29T00:42:42.498Z,1030.46
2016-11-29T00:42:52.493Z,1030.46
2016-11-29T00:43:02.488Z,1030.45
2016-11-29T00:43:12.478Z,1030.47
2016-11-29T00:43:22.472Z,1030.51
2016-11-29T00:43:32.466Z,1030.54
2016-11-29T00:43:42.460Z,1030.59
2016-11-29T00:43:52.451Z,1030.56
2016-11-29T00:44:02.445Z,1030.46
2016-11-29T00:44:12.435Z,1030.54
2016-11-29T00:44:22.431Z,1030.57
2016-11-29T00:44:32.425Z,1030.57
2016-11-29T00:44:42.416Z,1030.51
2016-11-29T00:44:52.422Z,1030.53
2016-11-29T00:45:02.401Z,1030.54
2016-11-29T00:45:12.395Z,1030.52
2016-11-29T00:45:22.387Z,1030.49
2016-11-29T00:45:32.381Z,1030.47
2016-11-29T00:45:42.377Z,1030.51
2016-11-29T00:45:52.367Z,1030.54
2016-11-29T00:46:02.360Z,1030.51
2016-11-29T00:46:12.353Z,1030.56
2016-11-29T00:46:22.345Z,1030.52
2016-11-29T00:46:32.338Z,1030.59
2016-11-29T00:46:42.331Z,1030.5
2016-11-29T00:46:52.323Z,1030.59
2016-11-29T00:47:02.317Z,1030.55
2016-11-29T00:47:12.311Z,1030.58
2016-11-29T00:47:22.304Z,1030.59
2016-11-29T00:47:32.296Z,1030.57
2016-11-29T00:47:42.291Z,1030.58
2016-11-29T00:47:52.284Z,1030.54
2016-11-29T00:48:02.275Z,1030.58
2016-11-29T00:48:12.270Z,1030.58
2016-11-29T00:48:22.260Z,1030.55
2016-11-29T00:48:32.255Z,1030.6
2016-11-29T00:48:42.249Z,1030.6
2016-11-29T00:48:52.240Z,1030.58
2016-11-29T00:49:02.233Z,1030.61
2016-11-29T00:49:12.227Z,1030.54
2016-11-29T00:49:22.218Z,1030.57
2016-11-29T00:49:32.214Z,1030.63
2016-11-29T00:49:42.206Z,1030.59
2016-11-29T00:49:52.198Z,1030.63
2016-11-29T00:50:02.529Z,1030.59
2016-11-29T00:50:12.184Z,1030.56
2016-11-29T00:50:22.178Z,1030.53
2016-11-29T00:50:32.171Z,1030.6
2016-11-29T00:50:42.162Z,1030.6
2016-11-29T00:50:52.155Z,1030.59
2016-11-29T00:51:02.150Z,1030.6
2016-11-29T00:51:12.142Z,1030.62
2016-11-29T00:51:22.137Z,1030.59
2016-11-29T00:51:32.129Z,1030.56
2016-11-29T00:51:42.143Z,1030.6
2016-11-29T00:51:52.114Z,1030.57
2016-11-29T00:52:02.108Z,1030.62
2016-11-29T00:52:12.102Z,1030.59
2016-11-29T00:52:22.093Z,1030.58
2016-11-29T00:52:32.087Z,1030.59
2016-11-29T00:52:42.079Z,1030.61
2016-11-29T00:52:52.072Z,1030.6
2016-11-29T00:53:02.065Z,1030.61
2016-11-29T00:53:12.059Z,1030.58
2016-11-29T00:53:22.052Z,1030.6
2016-11-29T00:53:32.044Z,1030.56
2016-11-29T00:53:42.372Z,1030.59
2016-11-29T00:53:52.029Z,1030.6
2016-11-29T00:54:02.024Z,1030.55
2016-11-29T00:54:12.016Z,1030.61
2016-11-29T00:54:22.010Z,1030.56
2016-11-29T00:54:32.003Z,1030.51
2016-11-29T00:54:41.994Z,1030.58
2016-11-29T00:54:51.989Z,1030.53
2016-11-29T00:55:02.316Z,1030.48
2016-11-29T00:55:11.973Z,1030.54
2016-11-29T00:55:21.966Z,1030.58
2016-11-29T00:55:31.959Z,1030.52
2016-11-29T00:55:41.969Z,1030.53
2016-11-29T00:55:51.947Z,1030.57
2016-11-29T00:56:01.941Z,1030.52
2016-11-29T00:56:11.932Z,1030.51
2016-11-29T00:56:21.925Z,1030.54
2016-11-29T00:56:31.919Z,1030.56
2016-11-29T00:56:41.911Z,1030.54
2016-11-29T00:56:51.900Z,1030.53
2016-11-29T00:57:01.895Z,1030.54
2016-11-29T00:57:11.889Z,1030.5
2016-11-29T00:57:21.880Z,1030.51
2016-11-29T00:57:31.874Z,1030.5
2016-11-29T00:57:42.202Z,1030.49
2016-11-29T00:57:51.860Z,1030.51
2016-11-29T00:58:01.852Z,1030.49
2016-11-29T00:58:11.844Z,1030.55
2016-11-29T00:58:21.838Z,1030.5
2016-11-29T00:58:31.832Z,1030.52
2016-11-29T00:58:41.826Z,1030.57
2016-11-29T00:58:51.817Z,1030.55
2016-11-29T00:59:01.810Z,1030.5
2016-11-29T00:59:11.817Z,1030.5
2016-11-29T00:59:21.795Z,1030.56
2016-11-29T00:59:31.789Z,1030.53
2016-11-29T00:59:41.780Z,1030.52
2016-11-29T00:59:51.776Z,1030.54
2016-11-29T01:00:01.766Z,1030.56
2016-11-29T01:00:11.760Z,1030.52
2016-11-29T01:00:21.753Z,1030.54
2016-11-29T01:00:31.748Z,1030.58
2016-11-29T01:00:41.742Z,1030.57
2016-11-29T01:00:51.731Z,1030.58
2016-11-29T01:01:01.726Z,1030.53
2016-11-29T01:01:11.718Z,1030.52
2016-11-29T01:01:21.713Z,1030.55
2016-11-29T01:01:31.706Z,1030.52
2016-11-29T01:01:41.717Z,1030.52
2016-11-29T01:01:51.689Z,1030.5
2016-11-29T01:02:01.684Z,1030.52
2016-11-29T01:02:11.677Z,1030.59
2016-11-29T01:02:21.671Z,1030.61
2016-11-29T01:02:31.664Z,1030.53
2016-11-29T01:02:41.654Z,1030.55
2016-11-29T01:02:51.650Z,1030.5
2016-11-29T01:03:01.642Z,1030.6
2016-11-29T01:03:11.636Z,1030.55
2016-11-29T01:03:21.629Z,1030.53
2016-11-29T01:03:31.620Z,1030.57
2016-11-29T01:03:41.614Z,1030.58
2016-11-29T01:03:51.606Z,1030.57
2016-11-29T01:04:01.603Z,1030.53
2016-11-29T01:04:11.928Z,1030.56
2016-11-29T01:04:21.587Z,1030.55
2016-11-29T01:04:31.576Z,1030.54
2016-11-29T01:04:41.571Z,1030.53
2016-11-29T01:04:51.563Z,1030.55
2016-11-29T01:05:01.555Z,1030.58
2016-11-29T01:05:11.551Z,1030.55
2016-11-29T01:05:21.545Z,1030.56
2016-11-29T01:05:31.538Z,1030.58
2016-11-29T01:05:41.531Z,1030.5
2016-11-29T01:05:51.521Z,1030.54
2016-11-29T01:06:01.517Z,1030.55
2016-11-29T01:06:11.507Z,1030.61
2016-11-29T01:06:21.501Z,1030.58
2016-11-29T01:06:31.495Z,1030.57
2016-11-29T01:06:41.488Z,1030.58
2016-11-29T01:06:51.480Z,1030.59
2016-11-29T01:07:01.476Z,1030.59
2016-11-29T01:07:11.467Z,1030.57
2016-11-29T01:07:21.458Z,1030.64
2016-11-29T01:07:31.450Z,1030.61
2016-11-29T01:07:41.443Z,1030.57
2016-11-29T01:07:51.440Z,1030.59
2016-11-29T01:08:01.430Z,1030.55
2016-11-29T01:08:11.422Z,1030.56
2016-11-29T01:08:21.416Z,1030.5
2016-11-29T01:08:31.408Z,1030.62
2016-11-29T01:08:41.403Z,1030.53
2016-11-29T01:08:51.396Z,1030.56
2016-11-29T01:09:01.414Z,1030.58
2016-11-29T01:09:11.384Z,1030.52
2016-11-29T01:09:21.374Z,1030.56
2016-11-29T01:09:31.367Z,1030.52
2016-11-29T01:09:41.360Z,1030.52
2016-11-29T01:09:51.352Z,1030.47
2016-11-29T01:10:01.347Z,1030.54
2016-11-29T01:10:11.339Z,1030.54
2016-11-29T01:10:21.333Z,1030.53
2016-11-29T01:10:31.325Z,1030.52
2016-11-29T01:10:41.318Z,1030.52
2016-11-29T01:10:51.311Z,1030.53
2016-11-29T01:11:01.306Z,1030.54
2016-11-29T01:11:11.300Z,1030.55
2016-11-29T01:11:21.290Z,1030.55
2016-11-29T01:11:31.281Z,1030.51
2016-11-29T01:11:41.276Z,1030.61
2016-11-29T01:11:51.269Z,1030.55
2016-11-29T01:12:01.261Z,1030.51
2016-11-29T01:12:11.255Z,1030.53
2016-11-29T01:12:21.248Z,1030.54
2016-11-29T01:12:31.240Z,1030.59
2016-11-29T01:12:41.236Z,1030.54
2016-11-29T01:12:51.227Z,1030.57
2016-11-29T01:13:01.218Z,1030.54
2016-11-29T01:13:11.212Z,1030.53
2016-11-29T01:13:21.207Z,1030.52
2016-11-29T01:13:31.196Z,1030.5
2016-11-29T01:13:41.193Z,1030.58
2016-11-29T01:13:51.184Z,1030.58
2016-11-29T01:14:01.512Z,1030.59
2016-11-29T01:14:11.169Z,1030.55
2016-11-29T01:14:21.163Z,1030.52
2016-11-29T01:14:31.156Z,1030.47
2016-11-29T01:14:41.148Z,1030.56
2016-11-29T01:14:51.142Z,1030.53
2016-11-29T01:15:01.137Z,1030.57
2016-11-29T01:15:11.128Z,1030.54
2016-11-29T01:15:21.121Z,1030.5
2016-11-29T01:15:31.113Z,1030.51
2016-11-29T01:15:41.107Z,1030.54
2016-11-29T01:15:51.100Z,1030.51
2016-11-29T01:16:01.093Z,1030.57
2016-11-29T01:16:11.086Z,1030.56
2016-11-29T01:16:21.078Z,1030.55
2016-11-29T01:16:31.073Z,1030.57
2016-11-29T01:16:41.064Z,1030.54
2016-11-29T01:16:51.058Z,1030.53
2016-11-29T01:17:01.051Z,1030.54
2016-11-29T01:17:11.044Z,1030.55
2016-11-29T01:17:21.037Z,1030.53
2016-11-29T01:17:31.029Z,1030.55
2016-11-29T01:17:41.023Z,1030.56
2016-11-29T01:17:51.015Z,1030.58
2016-11-29T01:18:01.007Z,1030.57
2016-11-29T01:18:11.004Z,1030.53
2016-11-29T01:18:20.995Z,1030.5
2016-11-29T01:18:30.988Z,1030.5
2016-11-29T01:18:40.981Z,1030.52
2016-11-29T01:18:50.974Z,1030.51
2016-11-29T01:19:00.968Z,1030.54
2016-11-29T01:19:10.958Z,1030.57
2016-11-29T01:19:21.057Z,1030.53
2016-11-29T01:19:30.945Z,1030.57
2016-11-29T01:19:40.938Z,1030.49
2016-11-29T01:19:50.933Z,1030.5
2016-11-29T01:20:00.924Z,1030.47
2016-11-29T01:20:10.918Z,1030.48
2016-11-29T01:20:20.910Z,1030.47
2016-11-29T01:20:30.905Z,1030.49
2016-11-29T01:20:40.895Z,1030.54
2016-11-29T01:20:50.889Z,1030.51
2016-11-29T01:21:00.880Z,1030.52
2016-11-29T01:21:10.874Z,1030.5
2016-11-29T01:21:20.867Z,1030.45
2016-11-29T01:21:30.861Z,1030.45
2016-11-29T01:21:40.856Z,1030.5
2016-11-29T01:21:50.846Z,1030.53
2016-11-29T01:22:00.841Z,1030.47
2016-11-29T01:22:10.832Z,1030.47
2016-11-29T01:22:20.826Z,1030.48
2016-11-29T01:22:30.819Z,1030.5
2016-11-29T01:22:40.812Z,1030.5
2016-11-29T01:22:50.804Z,1030.52
2016-11-29T01:23:00.799Z,1030.51
2016-11-29T01:23:10.789Z,1030.48
2016-11-29T01:23:20.783Z,1030.52
2016-11-29T01:23:30.776Z,1030.55
2016-11-29T01:23:40.769Z,1030.52
2016-11-29T01:23:50.764Z,1030.52
2016-11-29T01:24:00.862Z,1030.49
2016-11-29T01:24:10.748Z,1030.47
2016-11-29T01:24:20.741Z,1030.52
2016-11-29T01:24:30.734Z,1030.53
2016-11-29T01:24:40.727Z,1030.51
2016-11-29T01:24:50.720Z,1030.58
2016-11-29T01:25:00.717Z,1030.55
2016-11-29T01:25:10.703Z,1030.56
2016-11-29T01:25:20.698Z,1030.55
2016-11-29T01:25:30.692Z,1030.58
2016-11-29T01:25:40.687Z,1030.54
2016-11-29T01:25:50.676Z,1030.57
2016-11-29T01:26:00.671Z,1030.55
2016-11-29T01:26:10.663Z,1030.55
2016-11-29T01:26:20.656Z,1030.52
2016-11-29T01:26:30.650Z,1030.54
2016-11-29T01:26:40.644Z,1030.57
2016-11-29T01:26:50.639Z,1030.57
2016-11-29T01:27:00.628Z,1030.58
2016-11-29T01:27:10.621Z,1030.56
2016-11-29T01:27:20.613Z,1030.58
2016-11-29T01:27:30.608Z,1030.59
2016-11-29T01:27:40.600Z,1030.6
2016-11-29T01:27:50.594Z,1030.57
2016-11-29T01:28:00.585Z,1030.61
2016-11-29T01:28:10.580Z,1030.6
2016-11-29T01:28:20.590Z,1030.53
2016-11-29T01:28:30.563Z,1030.54
2016-11-29T01:28:40.558Z,1030.55
2016-11-29T01:28:50.550Z,1030.59
2016-11-29T01:29:00.542Z,1030.56
2016-11-29T01:29:10.538Z,1030.52
2016-11-29T01:29:20.531Z,1030.53
2016-11-29T01:29:30.524Z,1030.57
2016-11-29T01:29:40.515Z,1030.55
2016-11-29T01:29:50.508Z,1030.57
2016-11-29T01:30:00.502Z,1030.55
2016-11-29T01:30:10.495Z,1030.55
2016-11-29T01:30:20.488Z,1030.55
2016-11-29T01:30:30.480Z,1030.56
2016-11-29T01:30:40.473Z,1030.51
2016-11-29T01:30:50.466Z,1030.56
2016-11-29T01:31:00.460Z,1030.53
2016-11-29T01:31:10.453Z,1030.5
2016-11-29T01:31:20.448Z,1030.53
2016-11-29T01:31:30.439Z,1030.49
2016-11-29T01:31:40.430Z,1030.53
2016-11-29T01:31:50.424Z,1030.52
2016-11-29T01:32:00.751Z,1030.52
2016-11-29T01:32:10.409Z,1030.47
2016-11-29T01:32:20.404Z,1030.52
2016-11-29T01:32:30.397Z,1030.55
2016-11-29T01:32:40.389Z,1030.53
2016-11-29T01:32:50.381Z,1030.49
2016-11-29T01:33:00.376Z,1030.55
2016-11-29T01:33:10.366Z,1030.55
2016-11-29T01:33:20.360Z,1030.52
2016-11-29T01:33:30.353Z,1030.51
2016-11-29T01:33:40.347Z,1030.51
2016-11-29T01:33:50.339Z,1030.5
2016-11-29T01:34:00.335Z,1030.53
2016-11-29T01:34:10.325Z,1030.52
2016-11-29T01:34:20.318Z,1030.49
2016-11-29T01:34:30.313Z,1030.55
2016-11-29T01:34:40.305Z,1030.5
2016-11-29T01:34:50.299Z,1030.48
2016-11-29T01:35:00.290Z,1030.51
2016-11-29T01:35:10.283Z,1030.48
2016-11-29T01:35:20.276Z,1030.53
2016-11-29T01:35:30.270Z,1030.5
2016-11-29T01:35:40.271Z,1030.53
2016-11-29T01:35:50.255Z,1030.5
2016-11-29T01:36:00.249Z,1030.51
2016-11-29T01:36:10.241Z,1030.49
2016-11-29T01:36:20.250Z,1030.52
2016-11-29T01:36:30.227Z,1030.52
2016-11-29T01:36:40.219Z,1030.52
2016-11-29T01:36:50.213Z,1030.59
2016-11-29T01:37:00.206Z,1030.57
2016-11-29T01:37:10.199Z,1030.55
2016-11-29T01:37:20.192Z,1030.51
2016-11-29T01:37:30.183Z,1030.55
2016-11-29T01:37:40.179Z,1030.58
2016-11-29T01:37:50.170Z,1030.59
2016-11-29T01:38:00.165Z,1030.54
2016-11-29T01:38:10.156Z,1030.55
2016-11-29T01:38:20.150Z,1030.57
2016-11-29T01:38:30.144Z,1030.55
2016-11-29T01:38:40.134Z,1030.61
2016-11-29T01:38:50.127Z,1030.54
2016-11-29T01:39:00.124Z,1030.59
2016-11-29T01:39:10.116Z,1030.6
2016-11-29T01:39:20.107Z,1030.54
2016-11-29T01:39:30.101Z,1030.52
2016-11-29T01:39:40.093Z,1030.52
2016-11-29T01:39:50.086Z,1030.6
2016-11-29T01:40:00.080Z,1030.56
2016-11-29T01:40:10.072Z,1030.53
2016-11-29T01:40:20.067Z,1030.55
2016-11-29T01:40:30.392Z,1030.55
2016-11-29T01:40:40.052Z,1030.48
2016-11-29T01:40:50.044Z,1030.54
2016-11-29T01:41:00.037Z,1030.58
2016-11-29T01:41:10.030Z,1030.52
2016-11-29T01:41:20.022Z,1030.55
2016-11-29T01:41:30.016Z,1030.5
2016-11-29T01:41:40.008Z,1030.52
2016-11-29T01:41:50.002Z,1030.52
2016-11-29T01:41:59.995Z,1030.49
2016-11-29T01:42:09.986Z,1030.55
2016-11-29T01:42:19.981Z,1030.52
2016-11-29T01:42:29.993Z,1030.46
2016-11-29T01:42:39.967Z,1030.47
2016-11-29T01:42:49.958Z,1030.52
2016-11-29T01:42:59.954Z,1030.51
2016-11-29T01:43:09.962Z,1030.45
2016-11-29T01:43:19.937Z,1030.51
2016-11-29T01:43:29.929Z,1030.49
2016-11-29T01:43:39.924Z,1030.52
2016-11-29T01:43:49.921Z,1030.46
2016-11-29T01:44:00.243Z,1030.47
2016-11-29T01:44:09.904Z,1030.51
2016-11-29T01:44:19.897Z,1030.48
2016-11-29T01:44:29.887Z,1030.48
2016-11-29T01:44:39.884Z,1030.46
2016-11-29T01:44:49.873Z,1030.49
2016-11-29T01:44:59.870Z,1030.5
2016-11-29T01:45:09.860Z,1030.51
2016-11-29T01:45:19.853Z,1030.46
2016-11-29T01:45:29.848Z,1030.47
2016-11-29T01:45:39.839Z,1030.42
2016-11-29T01:45:49.832Z,1030.48
2016-11-29T01:45:59.825Z,1030.44
2016-11-29T01:46:09.817Z,1030.46
2016-11-29T01:46:19.812Z,1030.47
2016-11-29T01:46:29.806Z,1030.53
2016-11-29T01:46:39.797Z,1030.48
2016-11-29T01:46:49.790Z,1030.48
2016-11-29T01:46:59.783Z,1030.5
2016-11-29T01:47:09.776Z,1030.46
2016-11-29T01:47:19.770Z,1030.55
2016-11-29T01:47:29.760Z,1030.44
2016-11-29T01:47:39.756Z,1030.48
2016-11-29T01:47:49.749Z,1030.48
2016-11-29T01:47:59.740Z,1030.52
2016-11-29T01:48:09.732Z,1030.51
2016-11-29T01:48:19.728Z,1030.49
2016-11-29T01:48:29.718Z,1030.51
2016-11-29T01:48:39.713Z,1030.45
2016-11-29T01:48:49.704Z,1030.48
2016-11-29T01:48:59.697Z,1030.47
2016-11-29T01:49:09.692Z,1030.46
2016-11-29T01:49:19.684Z,1030.48
2016-11-29T01:49:29.677Z,1030.43
2016-11-29T01:49:39.673Z,1030.51
2016-11-29T01:49:49.662Z,1030.44
2016-11-29T01:49:59.656Z,1030.45
2016-11-29T01:50:09.649Z,1030.47
2016-11-29T01:50:19.643Z,1030.4
2016-11-29T01:50:29.635Z,1030.44
2016-11-29T01:50:39.626Z,1030.44
2016-11-29T01:50:49.621Z,1030.5
2016-11-29T01:50:59.613Z,1030.47
2016-11-29T01:51:09.606Z,1030.49
2016-11-29T01:51:19.601Z,1030.46
2016-11-29T01:51:29.591Z,1030.47
2016-11-29T01:51:39.586Z,1030.44
2016-11-29T01:51:49.914Z,1030.47
2016-11-29T01:51:59.571Z,1030.49
2016-11-29T01:52:09.565Z,1030.45
2016-11-29T01:52:19.573Z,1030.48
2016-11-29T01:52:29.550Z,1030.5
2016-11-29T01:52:39.543Z,1030.48
2016-11-29T01:52:49.534Z,1030.44
2016-11-29T01:52:59.528Z,1030.43
2016-11-29T01:53:09.522Z,1030.48
2016-11-29T01:53:19.515Z,1030.49
2016-11-29T01:53:29.508Z,1030.46
2016-11-29T01:53:39.502Z,1030.47
2016-11-29T01:53:49.496Z,1030.47
2016-11-29T01:53:59.487Z,1030.45
2016-11-29T01:54:09.479Z,1030.45
2016-11-29T01:54:19.473Z,1030.44
2016-11-29T01:54:29.467Z,1030.43
2016-11-29T01:54:39.460Z,1030.45
2016-11-29T01:54:49.453Z,1030.51
2016-11-29T01:54:59.446Z,1030.44
2016-11-29T01:55:09.436Z,1030.48
2016-11-29T01:55:19.430Z,1030.43
2016-11-29T01:55:29.422Z,1030.46
2016-11-29T01:55:39.415Z,1030.45
2016-11-29T01:55:49.411Z,1030.46
2016-11-29T01:55:59.402Z,1030.46
2016-11-29T01:56:09.395Z,1030.46
2016-11-29T01:56:19.389Z,1030.4
2016-11-29T01:56:29.381Z,1030.41
2016-11-29T01:56:39.375Z,1030.43
2016-11-29T01:56:49.364Z,1030.37
2016-11-29T01:56:59.359Z,1030.36
2016-11-29T01:57:09.353Z,1030.41
2016-11-29T01:57:19.345Z,1030.44
2016-11-29T02:18:56.591Z,1030.34
2016-11-29T02:19:06.561Z,1030.33
2016-11-29T02:19:16.555Z,1030.31
2016-11-29T02:19:26.547Z,1030.37
2016-11-29T02:19:36.542Z,1030.33
2016-11-29T02:19:46.533Z,1030.36
2016-11-29T02:19:56.525Z,1030.31
2016-11-29T02:20:06.519Z,1030.34
2016-11-29T02:20:16.845Z,1030.38
2016-11-29T02:20:26.505Z,1030.33
2016-11-29T02:20:36.498Z,1030.36
2016-11-29T02:20:46.489Z,1030.33
2016-11-29T02:20:56.484Z,1030.33
2016-11-29T02:21:06.476Z,1030.33
2016-11-29T02:21:16.470Z,1030.27
2016-11-29T02:21:26.472Z,1030.31
2016-11-29T02:21:36.455Z,1030.31
2016-11-29T02:21:46.449Z,1030.3
2016-11-29T02:21:56.439Z,1030.32
2016-11-29T02:22:06.434Z,1030.29
2016-11-29T02:22:16.428Z,1030.4
2016-11-29T02:22:26.420Z,1030.36
2016-11-29T02:22:36.411Z,1030.34
2016-11-29T02:22:46.405Z,1030.31